KAJR

Habersham County Airport

Cornelia, Georgia, USA
METAR KAJR 231435Z AUTO 00000KT 10SM OVC003 22/22 A3015 RMK AO2 T02210221
Observed Flight Rules
May-23 @ 14:35 UTC (36 minutes ago) Instrument Flight Rules
Visibility Clouds
10 miles
  • Overcast at 300' AGL
Temperatures Readings
Current 22°C / 72°F
Dewpoint 22°C / 72°F
Humidity 100%
Altimeter 30.15" Hg
Pressure 1021 hPa
Elevation 441
METAR KAJR 231435Z AUTO 00000KT 10SM OVC003 22/22 A3015 RMK AO2 T02210221
Observed Flight Rules
May-23 @ 14:35 UTC
(36 minutes ago)
LIFR
Clouds
  • Overcast at 300' AGL
Temperature Dewpoint
22°C / 72°F 22°C / 72°F
Humidity Altimeter Pressure
100% 30.15" Hg 1021 hPa